Accueil
METAR-TAF:

METAR-TAF

Aéroports :

Aéroport de Dole-Jura

Dole, France

latitude: 47-02-34N, longitude: 005-26-06E, altitude: 196 m

Observation

Le bulletin a été fait il y a 35 minutes, à 00:00 UTC
Vent 3 kt de nord
Température 19°C
Humidité 83%
Pression 1018 hPa
Visibilité 10 km ou plus
pas de nuages en-dessous de 1500 mètres et pas de cumulonimbus.

METAR: LFGJ 210000Z AUTO 35003KT CAVOK 19/16 Q1018

Heure: 02:35 (00:35 UTC)

Prévision

Le bulletin a été fait il y a 10 heures et 35 minutes, à 14:00 UTC
Prévision valable du 20 à 15 UTC au 20 à 24 UTC
Vent 7 kt de nord/nord-ouest
Visibilité 10 km ou plus
pas de nuages en-dessous de 1500 mètres et pas de cumulonimbus.
Temporairement
du 20 à 15 UTC au 20 à 21 UTC
Vent 4 kt de direction variable

TAF: LFGJ 201400Z 2015/2024 34007KT CAVOK TEMPO 2015/2021 VRB04KT

Observations et prévisions météorologiques de plus de 4000 aéroports (messages METAR et TAF).

Les stations disponibles sont représentées par des disques jaunes et rouges sur la carte.

Passer la souris dessus pour voir le nom de la station.

Cliquer dessus pour voir les observations et prévisions météorologiques.

Pour changer de carte: cliquez sur les boutons verts avec une croix noire pour zoomer, sur le bouton vert avec un tiret pour effectuer un zoom arrière, ou sur les flèches vertes pour les cartes adjacentes.


METAR-TAF: